Maple Ridge, Minnesota
Current Conditions -  °F | °C
As of 11:32 AM on Sunday 23 Nov 2014 (Local Time) from KBJI Reporting Station
Haze Haze  
Wind Chill: 35°   Ceiling: 6000
Heat Index: 35°   Visibility: 5mi
Dew Point: 33°   Wind: 0mph
Humidity: 92%   Direction: NA
Pressure: 29.4"   Gusts: NA
Location:  47.7369°N, 94.9947°W
Report Text: KBJI 231732Z AUTO 00000KT 5SM BR OVC060 02/01 A2940 RMK AO2 T00160005
Loading
Personal Weather Stations






























Interactive Weather Map New forecast layout! Learn more

10-Day Weather Forecast

Advertisements
Track Severe Weather on mobile